Time,TemperatureF,DewpointF,PressureIn,WindDirection,WindDirectionDegrees,WindSpeedMPH,WindSpeedGustMPH,Humidity,HourlyPrecipIn,Conditions,Clouds,dailyrainin,SoftwareType,DateUTC
2015-03-04 00:13:00,72.3,69.5,30.13,East,90,0.0,-999.0,91,-99.99,,,0.00,Acu-Link.com,2015-03-04 05:13:00,
2015-03-04 00:28:00,72.1,69.0,30.12,East,90,2.7,-999.0,90,-99.99,,,0.00,Acu-Link.com,2015-03-04 05:28:00,
2015-03-04 00:43:00,72.3,69.2,30.12,ENE,67,1.1,-999.0,90,-99.99,,,0.00,Acu-Link.com,2015-03-04 05:43:00,
2015-03-04 00:58:00,72.3,69.2,30.12,ESE,112,1.1,-999.0,90,-99.99,,,0.00,Acu-Link.com,2015-03-04 05:58:00,
2015-03-04 01:14:00,72.1,69.0,30.11,East,90,0.0,-999.0,90,-99.99,,,0.00,Acu-Link.com,2015-03-04 06:14:00,
2015-03-04 01:29:00,72.0,68.9,30.10,SE,135,2.2,-999.0,90,-99.99,,,0.00,Acu-Link.com,2015-03-04 06:29:00,
2015-03-04 01:44:00,71.8,68.7,30.10,ESE,112,1.1,-999.0,90,-99.99,,,0.00,Acu-Link.com,2015-03-04 06:44:00,
2015-03-04 01:59:00,71.4,68.3,30.10,WSW,247,0.0,-999.0,90,-99.99,,,0.00,Acu-Link.com,2015-03-04 06:59:00,
2015-03-04 02:14:00,71.4,68.6,30.10,South,180,1.7,-999.0,91,-99.99,,,0.00,Acu-Link.com,2015-03-04 07:14:00,
2015-03-04 02:29:00,71.6,68.8,30.10,ESE,112,0.0,-999.0,91,-99.99,,,0.00,Acu-Link.com,2015-03-04 07:29:00,
2015-03-04 02:45:00,71.2,68.4,30.09,ESE,112,1.7,-999.0,91,-99.99,,,0.00,Acu-Link.com,2015-03-04 07:45:00,
2015-03-04 03:01:00,71.2,68.8,30.09,ESE,112,0.0,-999.0,92,-99.99,,,0.00,Acu-Link.com,2015-03-04 08:01:00,
2015-03-04 03:16:00,71.1,68.7,30.08,ESE,112,0.0,-999.0,92,-99.99,,,0.00,Acu-Link.com,2015-03-04 08:16:00,
2015-03-04 03:31:00,70.7,68.6,30.09,ESE,112,1.1,-999.0,93,-99.99,,,0.00,Acu-Link.com,2015-03-04 08:31:00,
2015-03-04 03:46:00,70.5,68.4,30.08,WSW,247,1.1,-999.0,93,-99.99,,,0.00,Acu-Link.com,2015-03-04 08:46:00,
2015-03-04 04:01:00,70.3,68.2,30.08,NE,45,0.0,-999.0,93,-99.99,,,0.00,Acu-Link.com,2015-03-04 09:01:00,
2015-03-04 04:16:00,70.2,68.4,30.08,ENE,67,0.0,-999.0,94,-99.99,,,0.00,Acu-Link.com,2015-03-04 09:16:00,
2015-03-04 04:32:00,69.8,68.0,30.08,ESE,112,0.0,-999.0,94,-99.99,,,0.00,Acu-Link.com,2015-03-04 09:32:00,
2015-03-04 04:47:00,69.6,68.4,30.09,ENE,67,0.0,-999.0,96,-99.99,,,0.00,Acu-Link.com,2015-03-04 09:47:00,
2015-03-04 05:02:00,69.4,68.2,30.09,SSW,202,0.0,-999.0,96,-99.99,,,0.00,Acu-Link.com,2015-03-04 10:02:00,
2015-03-04 05:17:00,69.6,68.7,30.09,ENE,67,0.0,-999.0,97,-99.99,,,0.00,Acu-Link.com,2015-03-04 10:17:00,
2015-03-04 05:32:00,69.8,68.9,30.10,West,270,0.0,-999.0,97,-99.99,,,0.00,Acu-Link.com,2015-03-04 10:32:00,
2015-03-04 05:48:00,69.8,68.9,30.10,East,90,0.0,-999.0,97,-99.99,,,0.00,Acu-Link.com,2015-03-04 10:48:00,
2015-03-04 06:03:00,69.6,68.7,30.10,East,90,0.0,-999.0,97,-99.99,,,0.00,Acu-Link.com,2015-03-04 11:03:00,
2015-03-04 06:18:00,69.6,68.7,30.10,ESE,112,0.0,-999.0,97,-99.99,,,0.00,Acu-Link.com,2015-03-04 11:18:00,
2015-03-04 06:33:00,70.0,69.1,30.11,ESE,112,0.0,-999.0,97,-99.99,,,0.00,Acu-Link.com,2015-03-04 11:33:00,
2015-03-04 06:48:00,70.0,68.8,30.12,SSW,202,1.7,-999.0,96,-99.99,,,0.00,Acu-Link.com,2015-03-04 11:48:00,
2015-03-04 07:03:00,70.3,69.1,30.12,ESE,112,0.0,-999.0,96,-99.99,,,0.00,Acu-Link.com,2015-03-04 12:03:00,
2015-03-04 07:19:00,71.6,69.8,30.13,ESE,112,1.7,-999.0,94,-99.99,,,0.00,Acu-Link.com,2015-03-04 12:19:00,
2015-03-04 07:34:00,74.1,70.3,30.13,NE,45,0.0,-999.0,88,-99.99,,,0.00,Acu-Link.com,2015-03-04 12:34:00,
2015-03-04 07:49:00,75.6,70.4,30.14,WSW,247,1.7,-999.0,84,-99.99,,,0.00,Acu-Link.com,2015-03-04 12:49:00,
2015-03-04 08:05:00,76.8,70.5,30.14,SW,225,0.0,-999.0,81,-99.99,,,0.00,Acu-Link.com,2015-03-04 13:05:00,
2015-03-04 08:20:00,77.9,70.8,30.14,East,90,1.7,-999.0,79,-99.99,,,0.00,Acu-Link.com,2015-03-04 13:20:00,
2015-03-04 08:36:00,77.9,70.5,30.15,SSW,202,2.2,-999.0,78,-99.99,,,0.00,Acu-Link.com,2015-03-04 13:36:00,
2015-03-04 08:51:00,79.0,70.8,30.14,East,90,2.7,-999.0,76,-99.99,,,0.00,Acu-Link.com,2015-03-04 13:51:00,
2015-03-04 09:06:00,78.6,70.4,30.15,East,90,1.1,-999.0,76,-99.99,,,0.00,Acu-Link.com,2015-03-04 14:06:00,
2015-03-04 09:21:00,80.2,70.3,30.15,WSW,247,2.2,-999.0,72,-99.99,,,0.00,Acu-Link.com,2015-03-04 14:21:00,
2015-03-04 09:37:00,81.1,70.4,30.14,ESE,112,2.7,-999.0,70,-99.99,,,0.00,Acu-Link.com,2015-03-04 14:37:00,
2015-03-04 09:52:00,80.4,70.5,30.14,East,90,1.7,-999.0,72,-99.99,,,0.00,Acu-Link.com,2015-03-04 14:52:00,
2015-03-04 10:07:00,80.6,70.7,30.15,East,90,8.9,-999.0,72,-99.99,,,0.00,Acu-Link.com,2015-03-04 15:07:00,
2015-03-04 10:23:00,79.9,71.2,30.15,SE,135,1.7,-999.0,75,-99.99,,,0.00,Acu-Link.com,2015-03-04 15:23:00,
2015-03-04 10:38:00,78.8,70.6,30.14,NNW,337,1.7,-999.0,76,-99.99,,,0.00,Acu-Link.com,2015-03-04 15:38:00,
2015-03-04 10:53:00,80.6,70.3,30.15,ENE,67,2.7,-999.0,71,-99.99,,,0.00,Acu-Link.com,2015-03-04 15:53:00,
2015-03-04 11:09:00,82.4,70.8,30.15,NE,45,2.7,-999.0,68,-99.99,,,0.00,Acu-Link.com,2015-03-04 16:09:00,
2015-03-04 11:24:00,83.1,69.6,30.13,East,90,1.7,-999.0,64,-99.99,,,0.00,Acu-Link.com,2015-03-04 16:24:00,
2015-03-04 11:39:00,83.3,69.8,30.11,ESE,112,5.3,-999.0,64,-99.99,,,0.00,Acu-Link.com,2015-03-04 16:39:00,
2015-03-04 11:54:00,82.6,69.6,30.11,SE,135,4.2,-999.0,65,-99.99,,,0.00,Acu-Link.com,2015-03-04 16:54:00,
2015-03-04 12:10:00,81.7,70.1,30.12,ESE,112,1.7,-999.0,68,-99.99,,,0.00,Acu-Link.com,2015-03-04 17:10:00,
2015-03-04 12:25:00,80.6,69.9,30.12,SSW,202,3.2,-999.0,70,-99.99,,,0.00,Acu-Link.com,2015-03-04 17:25:00,
2015-03-04 12:40:00,82.9,70.8,30.12,SSW,202,2.2,-999.0,67,-99.99,,,0.00,Acu-Link.com,2015-03-04 17:40:00,
2015-03-04 12:55:00,82.6,70.5,30.11,SSW,202,3.7,-999.0,67,-99.99,,,0.00,Acu-Link.com,2015-03-04 17:55:00,
2015-03-04 13:11:00,80.8,70.1,30.11,ESE,112,6.8,-999.0,70,-99.99,,,0.00,Acu-Link.com,2015-03-04 18:11:00,
2015-03-04 13:26:00,82.6,70.1,30.10,South,180,2.7,-999.0,66,-99.99,,,0.00,Acu-Link.com,2015-03-04 18:26:00,
2015-03-04 13:41:00,82.4,70.8,30.09,ESE,112,2.7,-999.0,68,-99.99,,,0.00,Acu-Link.com,2015-03-04 18:41:00,
2015-03-04 13:56:00,81.7,69.7,30.09,West,270,2.7,-999.0,67,-99.99,,,0.00,Acu-Link.com,2015-03-04 18:56:00,
2015-03-04 14:11:00,83.7,70.7,30.09,SSE,157,3.2,-999.0,65,-99.99,,,0.00,Acu-Link.com,2015-03-04 19:11:00,
2015-03-04 14:27:00,84.4,69.9,30.08,NNE,22,3.2,-999.0,62,-99.99,,,0.00,Acu-Link.com,2015-03-04 19:27:00,
2015-03-04 14:42:00,84.4,70.4,30.07,SSW,202,2.7,-999.0,63,-99.99,,,0.00,Acu-Link.com,2015-03-04 19:42:00,
2015-03-04 14:57:00,83.3,69.4,30.07,SSE,157,2.2,-999.0,63,-99.99,,,0.00,Acu-Link.com,2015-03-04 19:57:00,
2015-03-04 15:12:00,82.9,69.4,30.07,SE,135,1.7,-999.0,64,-99.99,,,0.00,Acu-Link.com,2015-03-04 20:12:00,
2015-03-04 15:28:00,82.4,70.3,30.06,ESE,112,5.3,-999.0,67,-99.99,,,0.00,Acu-Link.com,2015-03-04 20:28:00,
2015-03-04 15:43:00,82.9,69.9,30.07,ESE,112,1.7,-999.0,65,-99.99,,,0.00,Acu-Link.com,2015-03-04 20:43:00,
2015-03-04 15:58:00,81.5,69.5,30.08,ESE,112,1.1,-999.0,67,-99.99,,,0.00,Acu-Link.com,2015-03-04 20:58:00,
2015-03-04 16:13:00,80.8,69.2,30.07,ESE,112,1.1,-999.0,68,-99.99,,,0.00,Acu-Link.com,2015-03-04 21:13:00,
2015-03-04 16:29:00,81.1,69.5,30.07,East,90,1.7,-999.0,68,-99.99,,,0.00,Acu-Link.com,2015-03-04 21:29:00,
2015-03-04 16:44:00,79.2,69.4,30.07,NNE,22,1.7,-999.0,72,-99.99,,,0.00,Acu-Link.com,2015-03-04 21:44:00,
2015-03-04 16:59:00,79.0,69.6,30.07,ESE,112,1.1,-999.0,73,-99.99,,,0.00,Acu-Link.com,2015-03-04 21:59:00,
2015-03-04 17:14:00,79.2,69.8,30.07,ESE,112,2.2,-999.0,73,-99.99,,,0.00,Acu-Link.com,2015-03-04 22:14:00,
2015-03-04 17:30:00,78.6,69.6,30.07,ENE,67,1.7,-999.0,74,-99.99,,,0.00,Acu-Link.com,2015-03-04 22:30:00,
2015-03-04 17:45:00,77.4,69.2,30.08,ESE,112,1.7,-999.0,76,-99.99,,,0.00,Acu-Link.com,2015-03-04 22:45:00,
2015-03-04 18:00:00,77.4,70.0,30.08,SSE,157,2.2,-999.0,78,-99.99,,,0.00,Acu-Link.com,2015-03-04 23:00:00,
2015-03-04 18:15:00,76.3,70.0,30.09,SW,225,1.7,-999.0,81,-99.99,,,0.00,Acu-Link.com,2015-03-04 23:15:00,